createdAt,value
2022-11-08T00:00:06.828Z,99093.00
2022-11-08T00:02:34.985Z,99097.66
2022-11-08T00:05:22.323Z,99099.16
2022-11-08T00:08:07.774Z,99093.50
2022-11-08T00:10:53.213Z,99092.94
2022-11-08T00:13:38.488Z,99098.16
2022-11-08T00:16:06.791Z,99091.38
2022-11-08T00:18:34.850Z,99095.47
2022-11-08T00:21:05.041Z,99094.09
2022-11-08T00:23:32.810Z,99101.72
2022-11-08T00:26:00.628Z,99098.16
2022-11-08T00:28:28.381Z,99099.31
2022-11-08T00:30:56.165Z,99099.06
2022-11-08T00:33:23.996Z,99101.25
2022-11-08T00:35:51.797Z,99101.19
2022-11-08T00:38:21.080Z,99090.09
2022-11-08T00:40:48.966Z,99091.63
2022-11-08T00:43:16.948Z,99092.28
2022-11-08T00:45:44.942Z,99103.97
2022-11-08T00:48:12.931Z,99099.63
2022-11-08T00:50:40.884Z,99098.19
2022-11-08T00:53:09.082Z,99086.00
2022-11-08T00:55:38.215Z,99094.81
2022-11-08T00:58:05.986Z,99093.41
2022-11-08T01:00:33.978Z,99094.78
2022-11-08T01:03:19.926Z,99093.53
2022-11-08T01:05:48.541Z,99095.06
2022-11-08T01:08:18.064Z,99084.31
2022-11-08T01:10:50.141Z,99093.56
2022-11-08T01:13:19.261Z,99089.06
2022-11-08T01:15:47.729Z,99090.69
2022-11-08T01:18:17.958Z,99081.59
2022-11-08T01:20:47.049Z,99075.69
2022-11-08T01:23:15.906Z,99079.72
2022-11-08T01:25:45.498Z,99081.63
2022-11-08T01:28:14.899Z,99079.28
2022-11-08T01:30:45.100Z,99074.44
2022-11-08T01:33:13.647Z,99075.81
2022-11-08T01:35:44.363Z,99071.16
2022-11-08T01:38:12.377Z,99062.88
2022-11-08T01:40:44.337Z,99058.78
2022-11-08T01:43:36.888Z,99058.88
2022-11-08T01:46:37.356Z,99052.22
2022-11-08T01:49:27.699Z,99045.75
2022-11-08T01:52:01.874Z,99039.00
2022-11-08T01:54:35.458Z,99041.16
2022-11-08T01:57:06.279Z,99036.94
2022-11-08T01:59:39.091Z,99034.72
2022-11-08T02:02:08.689Z,99039.47
2022-11-08T02:04:37.581Z,99035.88
2022-11-08T02:07:06.632Z,99040.28
2022-11-08T02:09:37.099Z,99043.81
2022-11-08T02:12:06.585Z,99038.41
2022-11-08T02:14:37.469Z,99031.34
2022-11-08T02:17:05.710Z,99028.75
2022-11-08T02:19:40.767Z,99031.03
2022-11-08T02:22:17.616Z,99034.63
2022-11-08T02:24:47.091Z,99034.91
2022-11-08T02:27:15.790Z,99027.53
2022-11-08T02:29:43.657Z,99017.50
2022-11-08T02:32:12.590Z,99017.06
2022-11-08T02:34:44.957Z,99024.09
2022-11-08T02:37:15.420Z,99020.75
2022-11-08T02:39:44.275Z,99024.16
2022-11-08T02:42:18.499Z,99017.72
2022-11-08T02:44:46.641Z,99028.81
2022-11-08T02:47:14.749Z,99022.91
2022-11-08T02:49:42.834Z,99015.06
2022-11-08T02:52:11.128Z,99013.81
2022-11-08T02:54:39.083Z,99008.22
2022-11-08T02:57:06.853Z,99005.41
2022-11-08T02:59:35.988Z,98993.59
2022-11-08T03:02:03.865Z,98995.34
2022-11-08T03:04:31.827Z,98997.34
2022-11-08T03:06:59.643Z,98995.28
2022-11-08T03:09:28.053Z,98999.38
2022-11-08T03:11:55.829Z,98998.47
2022-11-08T03:14:24.338Z,98995.78
2022-11-08T03:16:53.580Z,98993.00
2022-11-08T03:19:21.859Z,98991.16
2022-11-08T03:21:50.282Z,98992.88
2022-11-08T03:24:18.093Z,98995.03
2022-11-08T03:26:46.178Z,98988.53
2022-11-08T03:29:13.999Z,98989.34
2022-11-08T03:31:41.894Z,98994.00
2022-11-08T03:34:11.864Z,98999.59
2022-11-08T03:36:39.759Z,98996.41
2022-11-08T03:39:07.584Z,98999.47
2022-11-08T03:41:35.460Z,98993.50
2022-11-08T03:44:03.297Z,98997.44
2022-11-08T03:46:31.158Z,99000.44
2022-11-08T03:48:58.992Z,98996.88
2022-11-08T03:51:28.507Z,98998.72
2022-11-08T03:53:56.541Z,98992.41
2022-11-08T03:56:24.398Z,98995.59
2022-11-08T03:58:52.213Z,98990.06
2022-11-08T04:01:20.121Z,98995.28
2022-11-08T04:03:47.938Z,98990.19
2022-11-08T04:06:15.906Z,98986.75
2022-11-08T04:08:45.139Z,98979.13
2022-11-08T04:11:30.309Z,98990.25
2022-11-08T04:14:16.511Z,98989.50
2022-11-08T04:16:44.359Z,98989.22
2022-11-08T04:19:29.598Z,98984.88
2022-11-08T04:21:57.851Z,98978.63
2022-11-08T04:24:27.026Z,98986.56
2022-11-08T04:26:54.909Z,98983.41
2022-11-08T04:29:22.742Z,98986.19
2022-11-08T04:31:50.584Z,98983.81
2022-11-08T04:34:18.391Z,98978.63
2022-11-08T04:36:46.316Z,98963.16
2022-11-08T04:39:14.160Z,98967.16
2022-11-08T04:41:43.393Z,98965.56
2022-11-08T04:44:12.451Z,98975.06
2022-11-08T04:46:40.283Z,98973.91
2022-11-08T04:49:09.256Z,98959.28
2022-11-08T04:51:37.142Z,98943.00
2022-11-08T04:54:07.602Z,98950.50
2022-11-08T04:56:35.232Z,98948.94
2022-11-08T04:59:08.286Z,98951.00
2022-11-08T05:01:38.766Z,98951.38
2022-11-08T05:04:06.799Z,98946.25
2022-11-08T05:06:34.720Z,98937.56
2022-11-08T05:09:02.526Z,98943.16
2022-11-08T05:11:31.324Z,98927.31
2022-11-08T05:13:59.333Z,98934.06
2022-11-08T05:16:30.126Z,98923.38
2022-11-08T05:18:58.249Z,98936.78
2022-11-08T05:21:44.021Z,98926.91
2022-11-08T05:24:15.525Z,98931.69
2022-11-08T05:26:45.902Z,98923.34
2022-11-08T05:29:16.109Z,98924.91
2022-11-08T05:31:45.602Z,98931.25
2022-11-08T05:34:13.432Z,98920.94
2022-11-08T05:36:41.205Z,98933.63
2022-11-08T05:39:09.020Z,98929.63
2022-11-08T05:41:36.873Z,98925.28
2022-11-08T05:44:04.700Z,98922.56
2022-11-08T05:46:32.513Z,98917.41
2022-11-08T05:49:01.710Z,98921.34
2022-11-08T05:51:29.561Z,98920.97
2022-11-08T05:53:57.298Z,98919.81
2022-11-08T05:56:25.172Z,98921.41
2022-11-08T05:58:53.036Z,98925.75
2022-11-08T06:01:21.444Z,98914.69
2022-11-08T06:03:50.764Z,98917.81
2022-11-08T06:06:21.406Z,98904.81
2022-11-08T06:08:51.504Z,98899.28
2022-11-08T06:11:22.730Z,98904.81
2022-11-08T06:13:50.922Z,98898.47
2022-11-08T06:16:20.164Z,98908.34
2022-11-08T06:18:48.490Z,98904.78
2022-11-08T06:21:18.089Z,98905.13
2022-11-08T06:23:49.725Z,98904.31
2022-11-08T06:26:18.018Z,98910.19
2022-11-08T06:28:45.843Z,98902.63
2022-11-08T06:31:13.687Z,98892.75
2022-11-08T06:33:41.508Z,98906.16
2022-11-08T06:36:09.965Z,98905.38
2022-11-08T06:38:37.729Z,98907.75
2022-11-08T06:41:07.063Z,98907.34
2022-11-08T06:43:35.024Z,98916.78
2022-11-08T06:46:03.397Z,98914.06
2022-11-08T06:48:35.829Z,98918.03
2022-11-08T06:51:05.283Z,98920.81
2022-11-08T06:53:33.623Z,98904.91
2022-11-08T06:56:01.660Z,98901.59
2022-11-08T06:58:31.774Z,98901.22
2022-11-08T07:01:03.396Z,98904.69
2022-11-08T07:03:31.927Z,98911.06
2022-11-08T07:06:02.706Z,98906.44
2022-11-08T07:08:30.633Z,98905.84
2022-11-08T07:10:58.647Z,98909.59
2022-11-08T07:13:26.592Z,98913.84
2022-11-08T07:15:58.617Z,98904.97
2022-11-08T07:18:27.504Z,98914.50
2022-11-08T07:20:59.476Z,98910.66
2022-11-08T07:23:27.378Z,98909.53
2022-11-08T07:25:55.321Z,98915.28
2022-11-08T07:28:23.164Z,98917.38
2022-11-08T07:30:51.026Z,98926.44
2022-11-08T07:33:20.702Z,98928.31
2022-11-08T07:35:48.762Z,98915.41
2022-11-08T07:38:16.570Z,98911.44
2022-11-08T07:40:44.866Z,98910.81
2022-11-08T07:43:13.298Z,98926.03
2022-11-08T07:45:41.813Z,98926.41
2022-11-08T07:48:13.264Z,98924.84
2022-11-08T07:50:43.434Z,98920.31
2022-11-08T07:53:11.922Z,98924.16
2022-11-08T07:55:40.394Z,98922.31
2022-11-08T07:58:09.294Z,98922.50
2022-11-08T08:00:39.379Z,98922.25
2022-11-08T08:03:09.210Z,98927.41
2022-11-08T08:05:38.808Z,98924.47
2022-11-08T08:08:08.720Z,98932.63
2022-11-08T08:10:37.341Z,98925.41
2022-11-08T08:13:06.171Z,98922.72
2022-11-08T08:15:34.725Z,98931.81
2022-11-08T08:18:03.061Z,98921.47
2022-11-08T08:20:31.890Z,98917.00
2022-11-08T08:23:00.303Z,98918.69
2022-11-08T08:25:31.490Z,98928.03
2022-11-08T08:28:01.814Z,98921.66
2022-11-08T08:30:31.859Z,98926.84
2022-11-08T08:33:26.809Z,98931.03
2022-11-08T08:35:53.474Z,98926.03
2022-11-08T08:38:21.883Z,98926.38
2022-11-08T08:40:51.523Z,98931.19
2022-11-08T08:43:19.846Z,98936.69
2022-11-08T08:45:48.801Z,98927.63
2022-11-08T08:48:16.806Z,98925.44
2022-11-08T08:50:44.586Z,98917.31
2022-11-08T08:53:13.035Z,98931.63
2022-11-08T08:55:41.754Z,98913.47
2022-11-08T08:58:11.900Z,98908.97
2022-11-08T09:03:27.672Z,98901.56
2022-11-08T09:05:57.485Z,98905.22
2022-11-08T09:08:25.771Z,98906.13
2022-11-08T09:10:55.531Z,98904.41
2022-11-08T09:13:26.145Z,98894.31
2022-11-08T09:15:54.457Z,98896.94
2022-11-08T09:18:22.338Z,98903.03
2022-11-08T09:20:50.208Z,98902.81
2022-11-08T09:23:18.859Z,98913.59
2022-11-08T09:25:47.067Z,98909.81
2022-11-08T09:28:14.859Z,98906.66
2022-11-08T09:30:44.000Z,98906.22
2022-11-08T09:33:11.893Z,98913.97
2022-11-08T09:35:39.729Z,98904.22
2022-11-08T09:38:07.852Z,98912.06
2022-11-08T09:40:40.709Z,98910.63
2022-11-08T09:43:26.909Z,98906.38
2022-11-08T09:45:57.456Z,98899.97
2022-11-08T09:48:29.559Z,98902.06
2022-11-08T09:51:00.161Z,98915.31
2022-11-08T09:53:35.824Z,98907.09
2022-11-08T09:56:08.957Z,98908.13
2022-11-08T09:58:41.120Z,98903.06
2022-11-08T10:01:12.013Z,98896.78
2022-11-08T10:03:42.703Z,98896.91
2022-11-08T10:06:27.315Z,98890.09
2022-11-08T10:09:03.926Z,98878.66
2022-11-08T10:11:45.721Z,98877.66
2022-11-08T10:14:31.554Z,98867.22
2022-11-08T10:17:12.283Z,98868.78
2022-11-08T10:19:52.101Z,98887.13
2022-11-08T10:22:29.017Z,98881.78
2022-11-08T10:25:01.823Z,98879.94
2022-11-08T10:27:34.773Z,98884.47
2022-11-08T10:30:06.108Z,98880.88
2022-11-08T10:32:36.211Z,98867.81
2022-11-08T10:35:10.511Z,98875.22
2022-11-08T10:37:39.841Z,98879.31
2022-11-08T10:40:20.215Z,98891.47
2022-11-08T10:42:52.741Z,98888.22
2022-11-08T10:45:20.548Z,98895.75
2022-11-08T10:47:50.111Z,98895.28
2022-11-08T10:50:20.603Z,98902.13
2022-11-08T10:52:54.456Z,98901.38
2022-11-08T10:55:28.086Z,98897.09
2022-11-08T10:57:55.879Z,98893.13
2022-11-08T11:00:30.659Z,98901.63
2022-11-08T11:03:01.582Z,98897.47
2022-11-08T11:05:35.504Z,98893.91
2022-11-08T11:08:14.594Z,98900.06
2022-11-08T11:10:43.903Z,98897.25
2022-11-08T11:13:13.765Z,98892.25
2022-11-08T11:15:47.800Z,98878.09
2022-11-08T11:18:32.850Z,98876.44
2022-11-08T11:21:12.291Z,98877.47
2022-11-08T11:23:43.874Z,98873.75
2022-11-08T11:26:21.384Z,98874.81
2022-11-08T11:29:17.714Z,98871.88
2022-11-08T11:31:47.427Z,98866.31
2022-11-08T11:34:42.241Z,98873.47
2022-11-08T11:37:20.404Z,98868.94
2022-11-08T11:39:56.050Z,98855.22
2022-11-08T11:42:45.288Z,98853.03
2022-11-08T11:45:18.996Z,98848.63
2022-11-08T11:47:50.675Z,98841.31
2022-11-08T11:50:31.987Z,98839.59
2022-11-08T11:53:02.163Z,98836.84
2022-11-08T11:55:45.657Z,98836.00
2022-11-08T11:58:32.713Z,98840.19
2022-11-08T12:01:13.131Z,98842.53
2022-11-08T12:03:57.208Z,98833.78
2022-11-08T12:06:38.638Z,98837.41
2022-11-08T12:09:24.074Z,98838.28
2022-11-08T12:12:04.729Z,98834.59
2022-11-08T12:14:42.441Z,98841.88
2022-11-08T12:17:34.665Z,98841.88
2022-11-08T12:20:26.595Z,98833.47
2022-11-08T12:23:10.180Z,98833.03
2022-11-08T12:25:44.816Z,98826.00
2022-11-08T12:28:33.382Z,98829.72
2022-11-08T12:31:15.210Z,98838.38
2022-11-08T12:33:57.809Z,98824.72
2022-11-08T12:36:36.760Z,98828.25
2022-11-08T12:39:23.180Z,98825.91
2022-11-08T12:42:03.968Z,98820.66
2022-11-08T12:44:53.141Z,98824.16
2022-11-08T12:47:32.986Z,98824.16
2022-11-08T12:50:11.561Z,98810.56
2022-11-08T12:52:55.973Z,98813.34
2022-11-08T12:55:28.333Z,98809.31
2022-11-08T12:57:59.624Z,98803.38
2022-11-08T13:00:29.306Z,98804.06
2022-11-08T13:03:05.789Z,98804.56
2022-11-08T13:05:38.636Z,98805.28
2022-11-08T13:08:14.106Z,98802.13
2022-11-08T13:10:51.676Z,98798.25
2022-11-08T13:13:33.981Z,98787.91
2022-11-08T13:16:10.707Z,98800.28
2022-11-08T13:18:45.973Z,98792.53
2022-11-08T13:21:41.078Z,98791.22
2022-11-08T13:24:43.807Z,98790.59
2022-11-08T13:27:33.926Z,98781.50
2022-11-08T13:30:36.333Z,98783.94
2022-11-08T13:33:15.092Z,98780.53
2022-11-08T13:35:52.153Z,98779.34
2022-11-08T13:38:31.949Z,98765.81
2022-11-08T13:41:16.026Z,98765.72
2022-11-08T13:43:45.896Z,98774.38
2022-11-08T13:46:46.441Z,98765.63
2022-11-08T13:49:19.041Z,98776.63
2022-11-08T13:51:47.372Z,98774.78
2022-11-08T13:54:52.815Z,98769.16
2022-11-08T13:57:42.282Z,98763.13
2022-11-08T14:00:35.335Z,98769.72
2022-11-08T14:03:03.135Z,98756.13
2022-11-08T14:05:33.253Z,98765.84
2022-11-08T14:08:20.942Z,98753.72
2022-11-08T14:11:09.258Z,98758.66
2022-11-08T14:13:58.078Z,98753.44
2022-11-08T14:16:33.909Z,98752.16
2022-11-08T14:19:19.960Z,98741.53
2022-11-08T14:21:50.836Z,98745.44
2022-11-08T14:24:22.663Z,98750.06
2022-11-08T14:26:50.449Z,98753.03
2022-11-08T14:29:19.486Z,98745.97
2022-11-08T14:31:49.031Z,98748.81
2022-11-08T14:34:31.974Z,98750.78
2022-11-08T14:37:01.596Z,98742.97
2022-11-08T14:39:34.578Z,98743.78
2022-11-08T14:42:04.451Z,98745.50
2022-11-08T14:44:32.296Z,98741.38
2022-11-08T14:47:01.564Z,98738.00
2022-11-08T14:49:34.809Z,98742.50
2022-11-08T14:52:16.140Z,98739.59
2022-11-08T14:54:46.878Z,98743.47
2022-11-08T14:57:32.185Z,98738.47
2022-11-08T15:00:02.412Z,98736.13
2022-11-08T15:02:32.277Z,98744.41
2022-11-08T15:05:00.089Z,98746.72
2022-11-08T15:07:28.120Z,98743.91
2022-11-08T15:09:56.636Z,98752.19
2022-11-08T15:12:26.303Z,98747.50
2022-11-08T15:14:58.944Z,98739.50
2022-11-08T15:17:33.934Z,98749.53
2022-11-08T15:20:20.768Z,98736.88
2022-11-08T15:22:52.865Z,98749.66
2022-11-08T15:25:29.093Z,98738.59
2022-11-08T15:27:58.970Z,98736.03
2022-11-08T15:30:37.867Z,98739.03
2022-11-08T15:33:07.354Z,98741.22
2022-11-08T15:35:37.798Z,98738.72
2022-11-08T15:38:06.488Z,98734.56
2022-11-08T15:40:36.829Z,98731.00
2022-11-08T15:43:04.941Z,98734.34
2022-11-08T15:49:56.566Z,98732.56
2022-11-08T15:52:24.519Z,98734.84
2022-11-08T15:54:52.779Z,98736.22
2022-11-08T15:57:20.761Z,98734.38
2022-11-08T15:59:48.877Z,98734.34
2022-11-08T16:02:22.944Z,98738.94
2022-11-08T16:04:50.757Z,98739.53
2022-11-08T16:07:20.070Z,98736.53
2022-11-08T16:09:48.101Z,98735.88
2022-11-08T16:12:17.688Z,98734.06
2022-11-08T16:14:45.656Z,98741.03
2022-11-08T16:17:14.968Z,98730.28
2022-11-08T16:19:42.821Z,98739.38
2022-11-08T16:22:10.712Z,98727.50
2022-11-08T16:24:40.041Z,98731.59
2022-11-08T16:27:07.981Z,98737.84
2022-11-08T16:29:36.433Z,98739.41
2022-11-08T16:32:04.295Z,98732.47
2022-11-08T16:34:32.088Z,98727.34
2022-11-08T16:37:00.153Z,98723.56
2022-11-08T16:39:28.424Z,98723.16
2022-11-08T16:41:57.601Z,98739.81
2022-11-08T16:44:25.448Z,98733.34
2022-11-08T16:46:54.143Z,98732.34
2022-11-08T16:49:26.740Z,98732.78
2022-11-08T16:51:54.596Z,98727.69
2022-11-08T16:54:24.121Z,98721.16
2022-11-08T16:57:03.457Z,98726.44
2022-11-08T16:59:41.450Z,98723.19
2022-11-08T17:02:20.538Z,98725.88
2022-11-08T17:04:48.401Z,98732.31
2022-11-08T17:07:16.227Z,98736.47
2022-11-08T17:09:44.087Z,98732.31
2022-11-08T17:12:12.129Z,98730.06
2022-11-08T17:14:41.288Z,98728.97
2022-11-08T17:17:10.382Z,98734.47
2022-11-08T17:19:38.215Z,98734.00
2022-11-08T17:22:06.220Z,98729.09
2022-11-08T17:24:35.341Z,98731.66
2022-11-08T17:27:03.163Z,98735.69
2022-11-08T17:29:31.030Z,98731.66
2022-11-08T17:32:00.497Z,98738.06
2022-11-08T17:34:29.538Z,98737.38
2022-11-08T17:36:57.344Z,98732.00
2022-11-08T17:39:25.222Z,98734.56
2022-11-08T17:41:53.224Z,98726.97
2022-11-08T17:44:21.060Z,98724.50
2022-11-08T17:46:50.160Z,98719.25
2022-11-08T17:49:19.369Z,98717.78
2022-11-08T17:51:47.315Z,98737.72
2022-11-08T17:54:15.142Z,98730.09
2022-11-08T17:56:43.166Z,98728.34
2022-11-08T17:59:11.207Z,98741.19
2022-11-08T18:01:39.270Z,98747.22
2022-11-08T18:04:07.231Z,98747.69
2022-11-08T18:06:38.750Z,98727.53
2022-11-08T18:09:06.722Z,98732.13
2022-11-08T18:11:34.623Z,98735.47
2022-11-08T18:14:03.624Z,98739.94
2022-11-08T18:16:31.937Z,98740.97
2022-11-08T18:18:59.785Z,98747.34
2022-11-08T18:21:27.737Z,98744.41
2022-11-08T18:23:59.765Z,98746.78
2022-11-08T18:26:28.250Z,98738.19
2022-11-08T18:28:56.253Z,98737.16
2022-11-08T18:31:24.339Z,98742.47
2022-11-08T18:33:52.538Z,98737.09
2022-11-08T18:36:22.817Z,98740.47
2022-11-08T18:38:52.133Z,98731.81
2022-11-08T18:41:25.154Z,98732.72
2022-11-08T18:43:53.710Z,98738.44
2022-11-08T18:46:23.431Z,98730.72
2022-11-08T18:48:51.880Z,98730.06
2022-11-08T18:51:21.575Z,98726.66
2022-11-08T18:53:52.567Z,98719.09
2022-11-08T18:56:22.590Z,98723.41
2022-11-08T18:58:51.097Z,98725.34
2022-11-08T19:01:19.319Z,98722.78
2022-11-08T19:03:47.340Z,98721.41
2022-11-08T19:06:15.219Z,98721.75
2022-11-08T19:08:43.007Z,98721.88
2022-11-08T19:11:13.029Z,98717.94
2022-11-08T19:13:42.789Z,98720.53
2022-11-08T19:16:14.395Z,98729.00
2022-11-08T19:18:43.366Z,98725.44
2022-11-08T19:21:14.458Z,98733.25
2022-11-08T19:23:42.704Z,98727.66
2022-11-08T19:26:14.039Z,98728.38
2022-11-08T19:28:45.601Z,98726.69
2022-11-08T19:31:14.514Z,98724.22
2022-11-08T19:33:42.510Z,98726.44
2022-11-08T19:36:13.839Z,98732.50
2022-11-08T19:38:42.468Z,98728.59
2022-11-08T19:41:12.592Z,98728.78
2022-11-08T19:43:43.895Z,98731.25
2022-11-08T19:46:13.863Z,98728.97
2022-11-08T19:48:43.327Z,98726.66
2022-11-08T19:51:14.684Z,98733.09
2022-11-08T19:53:42.859Z,98735.44
2022-11-08T19:56:12.387Z,98733.63
2022-11-08T19:58:40.652Z,98725.16
2022-11-08T20:01:10.894Z,98727.53
2022-11-08T20:03:39.311Z,98732.56
2022-11-08T20:06:08.425Z,98749.59
2022-11-08T20:08:36.519Z,98749.34
2022-11-08T20:11:12.344Z,98744.44
2022-11-08T20:13:40.263Z,98746.59
2022-11-08T20:16:14.808Z,98746.72
2022-11-08T20:18:43.094Z,98743.03
2022-11-08T20:21:12.913Z,98747.84
2022-11-08T20:23:42.511Z,98757.63
2022-11-08T20:26:16.382Z,98753.78
2022-11-08T20:28:55.157Z,98753.66
2022-11-08T20:31:25.913Z,98751.84
2022-11-08T20:33:54.800Z,98754.63
2022-11-08T20:36:23.999Z,98761.03
2022-11-08T20:38:55.433Z,98755.91
2022-11-08T20:41:23.320Z,98753.16
2022-11-08T20:43:51.326Z,98755.69
2022-11-08T20:46:21.686Z,98761.03
2022-11-08T20:48:51.524Z,98757.94
2022-11-08T20:51:21.224Z,98762.06
2022-11-08T20:53:49.490Z,98761.88
2022-11-08T20:56:19.223Z,98767.69
2022-11-08T20:58:48.219Z,98755.84
2022-11-08T21:01:18.272Z,98772.88
2022-11-08T21:03:47.422Z,98760.97
2022-11-08T21:06:22.116Z,98753.78
2022-11-08T21:08:59.001Z,98746.97
2022-11-08T21:11:30.206Z,98751.69
2022-11-08T21:13:58.210Z,98753.25
2022-11-08T21:16:31.565Z,98742.69
2022-11-08T21:19:01.154Z,98743.03
2022-11-08T21:21:30.937Z,98740.31
2022-11-08T21:23:58.796Z,98737.31
2022-11-08T21:26:26.715Z,98737.03
2022-11-08T21:28:55.262Z,98741.94
2022-11-08T21:31:23.085Z,98739.69
2022-11-08T21:33:51.036Z,98741.84
2022-11-08T21:36:20.506Z,98750.34
2022-11-08T21:38:49.960Z,98748.22
2022-11-08T21:41:17.902Z,98753.41
2022-11-08T21:43:45.913Z,98752.94
2022-11-08T21:46:15.874Z,98756.28
2022-11-08T21:48:43.861Z,98753.94
2022-11-08T21:51:11.749Z,98760.53
2022-11-08T21:53:49.318Z,98747.44
2022-11-08T21:56:22.390Z,98756.56
2022-11-08T21:58:50.208Z,98764.44
2022-11-08T22:01:18.350Z,98756.63
2022-11-08T22:03:46.751Z,98762.72
2022-11-08T22:06:15.031Z,98761.47
2022-11-08T22:08:42.834Z,98747.94
2022-11-08T22:11:10.639Z,98759.91
2022-11-08T22:13:39.852Z,98761.53
2022-11-08T22:16:08.108Z,98755.25
2022-11-08T22:18:58.788Z,98755.22
2022-11-08T22:21:39.623Z,98753.84
2022-11-08T22:24:09.473Z,98751.81
2022-11-08T22:26:37.459Z,98756.28
2022-11-08T22:29:06.995Z,98751.72
2022-11-08T22:31:34.971Z,98751.47
2022-11-08T22:34:02.869Z,98745.53
2022-11-08T22:36:30.741Z,98749.91
2022-11-08T22:38:58.983Z,98736.81
2022-11-08T22:41:26.853Z,98749.78
2022-11-08T22:43:55.336Z,98733.25
2022-11-08T22:46:24.788Z,98744.69
2022-11-08T22:48:52.605Z,98744.34
2022-11-08T22:51:20.421Z,98741.03
2022-11-08T22:53:48.327Z,98740.03
2022-11-08T22:56:16.122Z,98743.63
2022-11-08T22:58:43.907Z,98749.69
2022-11-08T23:01:13.301Z,98752.53
2022-11-08T23:03:45.381Z,98752.13
2022-11-08T23:06:13.885Z,98757.19
2022-11-08T23:08:42.238Z,98760.44
2022-11-08T23:11:27.925Z,98754.66
2022-11-08T23:14:13.439Z,98759.66
2022-11-08T23:16:43.883Z,98751.41
2022-11-08T23:19:32.831Z,98745.16
2022-11-08T23:22:18.501Z,98750.13
2022-11-08T23:24:46.536Z,98746.25
2022-11-08T23:27:35.006Z,98748.00
2022-11-08T23:30:20.681Z,98748.06
2022-11-08T23:32:49.944Z,98761.09
2022-11-08T23:35:21.472Z,98759.50
2022-11-08T23:37:49.668Z,98757.69
2022-11-08T23:40:37.087Z,98779.47
2022-11-08T23:43:24.374Z,98764.41
2022-11-08T23:45:52.696Z,98748.75
2022-11-08T23:48:20.858Z,98742.91
2022-11-08T23:50:52.075Z,98742.34
2022-11-08T23:53:20.537Z,98741.31
2022-11-08T23:55:48.767Z,98740.34
2022-11-08T23:58:16.637Z,98742.03
